Time;durP1;ratioP1;P1;durP2;ratioP2;P2;SDS_P1;SDS_P2;PMS_P1;PMS_P2;Temp;Humidity;BMP_temperature;BMP_pressure;BME280_temperature;BME280_humidity;BME280_pressure;Samples;Min_cycle;Max_cycle;Signal;HPM_P1;HPM_P2
2021/12/21 00:01:15;;;;;;;66.33;44.38;;;19.50;86.50;;;;;;1866009;76;21142;-78
2021/12/21 00:03:46;;;;;;;65.90;43.60;;;19.60;86.40;;;;;;1869949;76;21819;-78
2021/12/21 00:06:19;;;;;;;72.47;42.15;;;19.60;86.50;;;;;;1860604;76;21221;-78
2021/12/21 00:08:50;;;;;;;68.28;42.53;;;19.70;86.40;;;;;;1856815;76;21218;-78
2021/12/21 00:11:21;;;;;;;68.60;42.60;;;19.70;86.50;;;;;;1851959;76;21145;-79
2021/12/21 00:14:10;;;;;;;68.07;41.98;;;19.70;86.50;;;;;;1860076;76;21196;-79
2021/12/21 00:21:39;;;;;;;67.17;43.65;;;19.70;85.90;;;;;;1854695;76;21213;-78
2021/12/21 00:24:10;;;;;;;68.92;43.38;;;19.80;86.00;;;;;;1858820;76;21678;-79
2021/12/21 00:26:33;;;;;;;71.30;42.45;;;19.80;86.80;;;;;;1851886;77;21661;-79
2021/12/21 00:29:05;;;;;;;60.95;41.53;;;19.80;85.80;;;;;;1854898;76;21181;-77
2021/12/21 00:31:38;;;;;;;65.97;43.83;;;19.90;86.20;;;;;;1848751;76;21223;-77
2021/12/21 00:34:09;;;;;;;68.60;42.45;;;19.90;84.80;;;;;;1813346;77;21082;-78
2021/12/21 00:36:40;;;;;;;70.85;43.83;;;19.90;85.00;;;;;;1824732;77;21552;-78
2021/12/21 00:39:14;;;;;;;63.15;40.65;;;19.90;85.10;;;;;;1801739;78;22164;-78
2021/12/21 00:41:43;;;;;;;68.22;42.08;;;20.00;84.20;;;;;;1816257;77;21610;-78
2021/12/21 00:44:14;;;;;;;58.50;40.75;;;20.00;85.00;;;;;;1826043;77;21300;-78
2021/12/21 00:46:45;;;;;;;62.78;41.30;;;20.20;84.00;;;;;;1790008;79;21629;-78
2021/12/21 00:49:16;;;;;;;59.75;39.88;;;20.30;83.20;;;;;;1783545;79;21225;-78
2021/12/21 00:51:48;;;;;;;58.95;40.85;;;20.40;83.10;;;;;;1766698;81;21108;-78
2021/12/21 00:54:19;;;;;;;58.45;39.10;;;20.50;83.00;;;;;;1802332;78;21245;-78
2021/12/21 00:56:50;;;;;;;59.25;38.73;;;20.60;83.10;;;;;;1815563;78;21717;-78
2021/12/21 00:59:21;;;;;;;56.95;38.20;;;20.70;82.90;;;;;;1838665;77;21563;-78
2021/12/21 01:01:52;;;;;;;57.03;38.60;;;20.70;82.50;;;;;;1820789;77;21108;-79
2021/12/21 01:04:29;;;;;;;62.98;40.55;;;20.80;82.30;;;;;;1818356;77;21658;-79
2021/12/21 01:07:04;;;;;;;56.63;38.60;;;20.90;82.60;;;;;;1833653;77;21676;-79
2021/12/21 01:12:05;;;;;;;49.20;33.25;;;21.00;80.80;;;;;;1799497;78;21278;-78
2021/12/21 01:17:13;;;;;;;51.05;35.20;;;21.20;78.70;;;;;;1813075;77;21143;-77
2021/12/21 01:19:42;;;;;;;44.85;29.75;;;21.20;78.20;;;;;;1829807;78;21637;-69
2021/12/21 01:27:22;;;;;;;44.98;32.35;;;21.40;75.50;;;;;;1809529;77;21151;-69
2021/12/21 01:32:34;;;;;;;44.67;31.20;;;21.50;75.80;;;;;;1825088;77;21169;-70
2021/12/21 01:37:30;;;;;;;48.30;33.95;;;21.60;75.80;;;;;;1833534;78;21653;-71
2021/12/21 01:42:40;;;;;;;43.63;31.45;;;21.70;75.20;;;;;;1825865;78;21595;-70
2021/12/21 01:50:01;;;;;;;40.23;29.23;;;21.70;73.90;;;;;;1855546;76;21158;-70
2021/12/21 01:52:32;;;;;;;45.23;30.95;;;21.80;74.20;;;;;;1854991;77;21154;-70
2021/12/21 01:55:04;;;;;;;45.67;30.10;;;21.80;73.90;;;;;;1832862;77;21218;-72
2021/12/21 01:57:35;;;;;;;42.13;31.75;;;21.80;74.00;;;;;;1801849;79;21172;-71
2021/12/21 02:00:08;;;;;;;46.25;33.20;;;21.80;73.70;;;;;;1829713;77;21138;-71
2021/12/21 02:02:38;;;;;;;48.13;32.88;;;21.90;74.00;;;;;;1824525;77;21555;-70
2021/12/21 02:05:10;;;;;;;46.00;31.45;;;21.90;74.00;;;;;;1790582;79;21563;-70
2021/12/21 02:07:41;;;;;;;59.23;33.95;;;21.90;74.00;;;;;;1817980;77;21205;-72
2021/12/21 02:10:12;;;;;;;43.42;30.92;;;22.00;74.20;;;;;;1815635;77;21108;-71
2021/12/21 02:12:44;;;;;;;48.90;31.45;;;22.00;74.20;;;;;;1818058;77;21096;-72
2021/12/21 02:15:15;;;;;;;48.28;31.33;;;22.10;74.10;;;;;;1821618;77;21170;-71
2021/12/21 02:20:36;;;;;;;52.98;32.95;;;22.10;74.00;;;;;;1819949;77;21175;-70
2021/12/21 02:30:32;;;;;;;44.88;30.72;;;22.30;73.10;;;;;;1821589;77;21608;-70
2021/12/21 02:33:04;;;;;;;43.55;31.05;;;22.30;73.10;;;;;;1834291;75;21104;-70
2021/12/21 02:35:34;;;;;;;44.93;31.68;;;22.40;73.00;;;;;;1841885;77;21559;-70
2021/12/21 02:38:05;;;;;;;43.38;31.68;;;22.40;72.60;;;;;;1845738;77;21084;-69
2021/12/21 02:40:36;;;;;;;41.00;31.37;;;22.50;72.70;;;;;;1845656;77;21135;-68
2021/12/21 02:43:10;;;;;;;46.50;31.62;;;22.50;72.50;;;;;;1842312;77;21170;-71
2021/12/21 02:45:40;;;;;;;42.95;29.07;;;22.60;72.40;;;;;;1845471;76;21167;-70
2021/12/21 02:48:12;;;;;;;39.23;27.85;;;22.60;72.20;;;;;;1845120;77;21134;-69
2021/12/21 02:50:43;;;;;;;49.80;32.95;;;22.60;72.10;;;;;;1842971;77;21110;-69
2021/12/21 02:53:14;;;;;;;41.92;32.20;;;22.70;72.00;;;;;;1845797;77;21098;-69
2021/12/21 02:55:45;;;;;;;43.75;32.28;;;22.70;71.80;;;;;;1846528;77;21098;-69
2021/12/21 02:58:16;;;;;;;48.73;33.18;;;22.80;71.80;;;;;;1845837;77;21190;-69
2021/12/21 03:00:47;;;;;;;40.70;31.87;;;22.80;71.90;;;;;;1845590;76;21190;-69
2021/12/21 03:03:18;;;;;;;47.25;32.65;;;22.90;71.80;;;;;;1845312;76;21103;-69
2021/12/21 03:05:53;;;;;;;43.83;31.25;;;22.90;71.50;;;;;;1847098;77;21155;-69
2021/12/21 03:08:37;;;;;;;45.45;33.40;;;22.90;71.50;;;;;;1842795;76;21165;-69
2021/12/21 03:11:08;;;;;;;46.45;33.53;;;22.90;71.60;;;;;;1852079;76;21127;-69
2021/12/21 03:15:59;;;;;;;41.42;31.30;;;23.00;71.30;;;;;;1851882;76;21154;-70
2021/12/21 03:18:30;;;;;;;43.08;30.65;;;23.10;71.40;;;;;;1852113;76;21236;-70
2021/12/21 03:21:01;;;;;;;47.50;31.40;;;23.20;71.20;;;;;;1847350;77;21210;-70
2021/12/21 03:23:34;;;;;;;46.60;31.07;;;23.30;70.80;;;;;;1846335;77;21158;-70
2021/12/21 03:26:04;;;;;;;39.20;29.67;;;23.40;70.40;;;;;;1845195;77;21196;-71
2021/12/21 03:28:35;;;;;;;40.80;27.35;;;23.40;70.20;;;;;;1847056;76;21200;-73
2021/12/21 03:31:06;;;;;;;40.25;25.95;;;23.50;69.90;;;;;;1843360;77;21591;-73
2021/12/21 03:33:40;;;;;;;38.40;25.57;;;23.60;69.00;;;;;;1847441;77;21283;-70
2021/12/21 03:36:11;;;;;;;39.85;26.77;;;23.70;69.00;;;;;;1846018;76;21194;-72
2021/12/21 03:38:59;;;;;;;36.00;24.80;;;23.70;68.50;;;;;;1846982;76;21836;-71
2021/12/21 03:41:22;;;;;;;39.70;24.95;;;23.80;68.10;;;;;;1850347;76;21170;-71
2021/12/21 03:43:53;;;;;;;33.28;24.40;;;23.80;67.60;;;;;;1847672;76;22244;-71
2021/12/21 03:46:25;;;;;;;32.00;23.50;;;23.90;67.60;;;;;;1846013;76;21239;-72
2021/12/21 03:49:14;;;;;;;36.95;23.92;;;24.00;67.80;;;;;;1859274;76;21232;-70
2021/12/21 03:51:36;;;;;;;33.18;22.93;;;24.00;67.10;;;;;;1859579;76;21197;-72
2021/12/21 03:54:07;;;;;;;34.83;25.40;;;24.20;67.70;;;;;;1870309;76;21228;-71
2021/12/21 03:56:40;;;;;;;37.40;26.45;;;24.20;66.70;;;;;;1855839;76;21156;-70
2021/12/21 03:59:11;;;;;;;37.05;26.07;;;24.30;66.20;;;;;;1843012;77;21164;-70
2021/12/21 04:01:42;;;;;;;32.95;23.95;;;24.40;66.10;;;;;;1846866;76;21160;-70
2021/12/21 04:04:19;;;;;;;32.38;21.07;;;24.50;65.80;;;;;;1847236;77;21075;-69
2021/12/21 04:06:49;;;;;;;33.70;22.05;;;24.60;65.50;;;;;;1847506;76;21135;-72
2021/12/21 04:09:23;;;;;;;37.90;24.52;;;24.70;64.30;;;;;;1849340;76;21138;-71
2021/12/21 04:12:15;;;;;;;33.48;23.38;;;24.70;64.90;;;;;;1848102;76;21138;-72
2021/12/21 04:14:50;;;;;;;37.33;24.45;;;24.80;65.00;;;;;;1846076;77;21142;-70
2021/12/21 04:17:25;;;;;;;36.57;23.37;;;24.90;64.30;;;;;;1848476;77;21225;-70
2021/12/21 04:19:56;;;;;;;26.82;21.07;;;25.00;63.70;;;;;;1780284;79;21903;-69
2021/12/21 04:22:31;;;;;;;29.92;22.50;;;25.10;63.90;;;;;;1812951;79;21210;-70
2021/12/21 04:25:03;;;;;;;32.10;23.07;;;25.30;63.50;;;;;;1869632;76;21139;-71
2021/12/21 04:27:39;;;;;;;31.07;22.17;;;25.40;64.20;;;;;;1874278;76;21208;-72
2021/12/21 04:30:14;;;;;;;37.60;23.80;;;25.50;63.30;;;;;;1880087;76;21142;-71
2021/12/21 04:32:46;;;;;;;29.95;22.67;;;25.50;62.80;;;;;;1867851;76;21129;-71
2021/12/21 04:35:20;;;;;;;28.42;21.45;;;25.60;62.40;;;;;;1854054;76;21108;-71
2021/12/21 04:38:01;;;;;;;34.92;21.33;;;25.70;62.50;;;;;;1842275;77;21209;-71
2021/12/21 04:40:40;;;;;;;31.37;20.92;;;25.80;62.10;;;;;;1822791;78;21172;-70
2021/12/21 04:43:02;;;;;;;31.35;20.62;;;25.90;61.70;;;;;;1851199;76;21195;-70
2021/12/21 04:45:34;;;;;;;30.95;21.65;;;26.10;61.20;;;;;;1844257;76;21127;-71
2021/12/21 04:48:07;;;;;;;29.05;20.43;;;26.20;60.80;;;;;;1849850;76;21065;-71
2021/12/21 04:50:40;;;;;;;30.40;21.33;;;26.40;60.90;;;;;;1813729;77;21188;-72
2021/12/21 04:53:11;;;;;;;29.92;21.23;;;26.50;60.10;;;;;;1849319;76;21156;-70
2021/12/21 04:55:43;;;;;;;28.32;21.20;;;26.70;60.30;;;;;;1847285;76;21093;-71
2021/12/21 04:58:14;;;;;;;27.17;21.17;;;26.70;60.20;;;;;;1817315;78;21111;-70
2021/12/21 05:00:50;;;;;;;29.72;20.12;;;26.80;59.60;;;;;;1843382;76;21164;-69
2021/12/21 05:03:21;;;;;;;29.30;21.07;;;26.80;59.10;;;;;;1810573;78;21172;-69
2021/12/21 05:05:53;;;;;;;27.82;21.52;;;27.00;58.10;;;;;;1846593;76;21178;-70
2021/12/21 05:08:27;;;;;;;28.35;20.62;;;26.90;58.50;;;;;;1808534;78;21197;-70
2021/12/21 05:11:05;;;;;;;30.75;21.00;;;27.00;57.70;;;;;;1847308;77;21118;-70
2021/12/21 05:13:34;;;;;;;28.30;21.90;;;27.10;57.50;;;;;;1843737;76;21128;-70
2021/12/21 05:16:05;;;;;;;34.48;21.55;;;27.10;57.70;;;;;;1810129;78;21651;-71
2021/12/21 05:18:36;;;;;;;30.32;22.00;;;27.20;57.50;;;;;;1843934;76;21549;-71
2021/12/21 05:21:09;;;;;;;28.23;21.37;;;27.20;57.30;;;;;;1809930;78;21215;-70
2021/12/21 05:23:41;;;;;;;29.00;20.75;;;27.20;57.20;;;;;;1848016;76;21619;-70
2021/12/21 05:26:12;;;;;;;31.70;22.02;;;27.30;56.70;;;;;;1809162;78;21152;-70
2021/12/21 05:28:42;;;;;;;28.47;21.77;;;27.20;56.90;;;;;;1847544;76;21620;-70
2021/12/21 05:31:13;;;;;;;26.65;21.23;;;27.30;56.80;;;;;;1814788;77;21704;-70
2021/12/21 05:33:45;;;;;;;26.97;21.15;;;27.30;57.40;;;;;;1849373;76;21840;-70
2021/12/21 05:36:17;;;;;;;30.23;21.45;;;27.30;56.50;;;;;;1841701;77;21250;-69
2021/12/21 05:38:52;;;;;;;29.67;21.62;;;27.30;56.40;;;;;;1842763;76;21604;-70
2021/12/21 05:41:45;;;;;;;28.67;20.62;;;27.30;56.60;;;;;;1835666;76;21190;-70
2021/12/21 05:43:56;;;;;;;29.42;21.48;;;27.30;56.90;;;;;;1846201;76;21210;-70
2021/12/21 05:46:28;;;;;;;28.50;20.92;;;27.30;56.90;;;;;;1846637;76;21190;-71
2021/12/21 05:49:08;;;;;;;30.62;20.97;;;27.40;58.50;;;;;;1865197;75;21119;-70
2021/12/21 05:51:40;;;;;;;26.95;19.45;;;27.40;57.50;;;;;;1857644;76;21209;-70
2021/12/21 05:54:12;;;;;;;28.15;21.52;;;27.50;55.90;;;;;;1853601;76;21119;-70
2021/12/21 05:56:43;;;;;;;31.25;21.42;;;27.60;56.00;;;;;;1843826;77;21628;-70
2021/12/21 05:59:16;;;;;;;26.57;20.80;;;27.60;56.80;;;;;;1842071;78;21156;-70
2021/12/21 06:01:47;;;;;;;26.40;19.73;;;27.70;56.00;;;;;;1839613;78;21396;-71
2021/12/21 06:04:18;;;;;;;27.67;18.55;;;27.70;55.90;;;;;;1815348;79;21190;-71
2021/12/21 06:06:50;;;;;;;24.43;17.75;;;27.70;55.60;;;;;;1843063;76;21125;-71
2021/12/21 06:09:21;;;;;;;26.90;17.87;;;27.70;55.40;;;;;;1816828;78;21097;-70
2021/12/21 06:14:58;;;;;;;23.18;16.20;;;27.70;55.10;;;;;;1830261;78;21170;-71
2021/12/21 06:27:12;;;;;;;25.55;18.57;;;27.90;55.10;;;;;;1878965;75;21183;-71
2021/12/21 06:29:43;;;;;;;26.27;16.48;;;28.00;54.80;;;;;;1878056;76;21228;-70
2021/12/21 06:32:15;;;;;;;21.37;16.27;;;28.00;54.30;;;;;;1851317;76;21104;-70
2021/12/21 06:34:46;;;;;;;22.30;16.27;;;28.00;54.40;;;;;;1840937;76;21190;-71
2021/12/21 06:37:17;;;;;;;23.70;17.37;;;27.90;54.50;;;;;;1832357;78;21163;-71
2021/12/21 06:39:48;;;;;;;22.02;17.30;;;28.00;54.60;;;;;;1800581;78;21634;-70
2021/12/21 06:42:21;;;;;;;28.20;19.75;;;28.00;54.60;;;;;;1850705;76;21143;-70
2021/12/21 06:44:56;;;;;;;30.08;24.92;;;28.00;54.00;;;;;;1840807;77;21094;-71
2021/12/21 06:52:29;;;;;;;25.70;18.48;;;28.10;54.00;;;;;;1838310;78;21098;-71
2021/12/21 06:55:00;;;;;;;26.23;20.05;;;28.00;54.10;;;;;;1832140;76;21121;-70
2021/12/21 06:57:32;;;;;;;22.48;16.62;;;28.10;54.30;;;;;;1859541;76;21658;-71
2021/12/21 07:00:03;;;;;;;21.20;16.12;;;28.10;53.80;;;;;;1833107;77;21109;-70
2021/12/21 07:02:36;;;;;;;21.45;15.90;;;28.10;54.00;;;;;;1836451;78;21859;-70
2021/12/21 07:05:07;;;;;;;25.20;17.50;;;28.10;53.60;;;;;;1840155;78;21129;-70
2021/12/21 07:07:40;;;;;;;21.05;16.37;;;28.10;53.80;;;;;;1840480;77;21615;-70
2021/12/21 07:10:20;;;;;;;21.70;17.35;;;28.10;53.80;;;;;;1840267;77;21110;-71
2021/12/21 07:20:20;;;;;;;26.30;19.70;;;28.10;54.10;;;;;;1847655;76;21250;-71
2021/12/21 07:22:51;;;;;;;22.93;16.45;;;28.10;54.00;;;;;;1878250;76;21096;-71
2021/12/21 07:25:25;;;;;;;22.00;17.02;;;28.20;54.40;;;;;;1858378;76;21677;-71
2021/12/21 07:27:55;;;;;;;23.87;17.82;;;28.20;54.10;;;;;;1843519;76;21640;-71
2021/12/21 07:30:26;;;;;;;26.00;18.90;;;28.10;54.60;;;;;;1834399;78;21137;-71
2021/12/21 07:32:57;;;;;;;25.62;18.40;;;28.10;53.70;;;;;;1841184;77;21160;-70
2021/12/21 07:35:28;;;;;;;23.15;18.40;;;28.10;53.30;;;;;;1859059;75;21687;-71
2021/12/21 07:38:00;;;;;;;30.90;20.30;;;28.10;53.50;;;;;;1882403;76;21136;-71
2021/12/21 07:40:31;;;;;;;23.42;17.87;;;28.00;53.90;;;;;;1853373;76;21175;-71
2021/12/21 07:43:01;;;;;;;28.25;19.12;;;28.00;53.70;;;;;;1854374;77;21135;-71
2021/12/21 07:45:33;;;;;;;28.60;19.15;;;28.00;54.20;;;;;;1860177;76;21605;-71
2021/12/21 07:48:04;;;;;;;26.73;18.30;;;28.00;54.10;;;;;;1849303;77;21183;-71
2021/12/21 07:50:35;;;;;;;26.00;18.48;;;28.00;54.60;;;;;;1851412;76;21171;-70
2021/12/21 07:53:06;;;;;;;28.52;19.85;;;28.00;54.20;;;;;;1853272;77;21097;-70
2021/12/21 07:55:37;;;;;;;26.85;18.82;;;28.00;54.20;;;;;;1850118;76;21235;-70
2021/12/21 07:58:08;;;;;;;24.60;18.60;;;28.00;54.10;;;;;;1828929;78;21167;-71
2021/12/21 08:00:40;;;;;;;24.05;18.30;;;28.00;54.10;;;;;;1854791;77;21136;-70
2021/12/21 08:03:15;;;;;;;25.17;18.12;;;28.00;53.70;;;;;;1864755;76;21172;-70
2021/12/21 08:05:45;;;;;;;32.70;18.92;;;28.00;53.80;;;;;;1860824;76;21124;-69
2021/12/21 08:08:19;;;;;;;30.60;19.25;;;27.90;54.10;;;;;;1854133;76;21229;-70
2021/12/21 08:11:07;;;;;;;26.62;19.10;;;27.90;54.40;;;;;;1853004;77;21290;-70
2021/12/21 08:13:24;;;;;;;24.35;17.87;;;27.80;54.50;;;;;;1847234;77;21679;-70
2021/12/21 08:15:55;;;;;;;31.35;18.73;;;27.80;54.00;;;;;;1846991;77;21192;-69
2021/12/21 08:18:25;;;;;;;25.27;17.67;;;27.70;53.80;;;;;;1854822;77;21120;-70
2021/12/21 08:20:57;;;;;;;25.25;17.80;;;27.70;53.50;;;;;;1853195;77;21546;-69
2021/12/21 08:23:29;;;;;;;21.35;17.65;;;27.70;54.30;;;;;;1841422;76;21160;-69
2021/12/21 08:26:00;;;;;;;25.43;18.07;;;27.70;53.60;;;;;;1881680;76;21602;-70
2021/12/21 08:28:32;;;;;;;26.23;18.50;;;27.70;53.70;;;;;;1880847;76;21253;-70
2021/12/21 08:31:03;;;;;;;22.55;18.62;;;27.70;54.40;;;;;;1879610;76;21199;-71
2021/12/21 08:33:34;;;;;;;26.93;18.80;;;27.70;54.30;;;;;;1878801;76;21137;-70
2021/12/21 08:36:06;;;;;;;26.15;19.25;;;27.70;54.50;;;;;;1882099;76;21589;-71
2021/12/21 08:38:41;;;;;;;24.23;19.00;;;27.70;54.50;;;;;;1851086;76;21141;-71
2021/12/21 08:41:10;;;;;;;26.33;18.27;;;27.70;54.60;;;;;;1818352;78;21534;-71
2021/12/21 08:43:41;;;;;;;27.48;18.70;;;27.70;54.40;;;;;;1845704;78;21225;-71
2021/12/21 08:46:12;;;;;;;25.77;18.32;;;27.70;54.80;;;;;;1815337;77;21146;-73
2021/12/21 08:48:42;;;;;;;28.12;17.65;;;27.70;54.40;;;;;;1845385;78;21697;-71
2021/12/21 08:51:13;;;;;;;27.70;18.37;;;27.70;54.50;;;;;;1789486;79;21552;-72
2021/12/21 08:53:44;;;;;;;26.33;19.05;;;27.70;54.40;;;;;;1838580;78;21585;-70
2021/12/21 08:56:16;;;;;;;25.65;18.40;;;27.60;54.20;;;;;;1811273;77;21244;-72
2021/12/21 08:58:47;;;;;;;26.25;18.82;;;27.60;54.30;;;;;;1849538;77;21128;-70
2021/12/21 09:01:23;;;;;;;24.67;18.65;;;27.60;54.70;;;;;;1815655;78;21395;-71
2021/12/21 09:03:53;;;;;;;25.08;18.30;;;27.60;54.70;;;;;;1845741;76;21658;-71
2021/12/21 09:06:26;;;;;;;24.82;18.07;;;27.60;54.60;;;;;;1846827;77;21192;-70
2021/12/21 09:08:56;;;;;;;27.67;19.05;;;27.50;54.60;;;;;;1811940;79;21151;-71
2021/12/21 09:11:29;;;;;;;26.52;18.70;;;27.50;54.60;;;;;;1838562;78;21100;-71
2021/12/21 09:13:59;;;;;;;26.33;20.17;;;27.50;54.60;;;;;;1811575;79;21806;-73
2021/12/21 09:16:30;;;;;;;30.35;19.45;;;27.50;54.30;;;;;;1845918;76;21147;-71
2021/12/21 09:19:03;;;;;;;26.57;19.87;;;27.50;54.70;;;;;;1811564;79;21139;-72
2021/12/21 09:21:34;;;;;;;26.52;19.15;;;27.50;54.80;;;;;;1845824;76;21123;-72
2021/12/21 09:24:06;;;;;;;28.60;19.17;;;27.40;54.70;;;;;;1802332;79;21167;-72
2021/12/21 09:26:38;;;;;;;25.10;18.42;;;27.50;54.70;;;;;;1844300;78;21166;-72
2021/12/21 09:29:12;;;;;;;26.93;19.45;;;27.50;55.00;;;;;;1810692;79;21675;-72
2021/12/21 09:31:44;;;;;;;25.17;18.12;;;27.40;55.00;;;;;;1815845;76;21115;-72
2021/12/21 09:34:15;;;;;;;24.23;18.42;;;27.40;54.90;;;;;;1818032;78;21143;-71
2021/12/21 09:36:46;;;;;;;24.52;18.57;;;27.40;54.60;;;;;;1788117;79;21563;-72
2021/12/21 09:39:16;;;;;;;23.85;18.75;;;27.40;54.50;;;;;;1776241;79;21221;-72
2021/12/21 09:41:47;;;;;;;22.93;18.70;;;27.30;54.20;;;;;;1836170;78;21125;-72
2021/12/21 09:44:18;;;;;;;26.68;18.77;;;27.30;54.40;;;;;;1846468;78;21215;-72
2021/12/21 09:46:49;;;;;;;27.80;19.75;;;27.30;54.30;;;;;;1846398;78;21676;-72
2021/12/21 09:49:20;;;;;;;26.12;19.12;;;27.20;54.40;;;;;;1847346;76;21187;-72
2021/12/21 09:51:51;;;;;;;28.77;19.80;;;27.20;54.90;;;;;;1850717;76;21205;-72
2021/12/21 09:54:22;;;;;;;30.25;19.82;;;27.20;55.10;;;;;;1839844;78;21099;-72
2021/12/21 09:56:53;;;;;;;27.45;19.40;;;27.10;55.30;;;;;;1841647;78;21142;-71
2021/12/21 09:59:25;;;;;;;22.95;18.20;;;27.10;55.40;;;;;;1846521;78;21184;-71
2021/12/21 10:01:57;;;;;;;30.37;18.67;;;27.00;55.30;;;;;;1845152;76;21219;-71
2021/12/21 10:04:29;;;;;;;26.80;18.60;;;26.90;55.40;;;;;;1817187;78;21101;-71
2021/12/21 10:07:01;;;;;;;25.80;18.65;;;26.90;55.90;;;;;;1845362;76;21563;-71
2021/12/21 10:09:36;;;;;;;42.70;21.23;;;26.90;55.80;;;;;;1841094;76;21144;-70
2021/12/21 10:12:07;;;;;;;31.73;20.50;;;26.80;55.90;;;;;;1838181;78;21086;-70
2021/12/21 10:14:38;;;;;;;29.67;19.27;;;26.80;56.00;;;;;;1845137;78;21161;-72
2021/12/21 10:17:11;;;;;;;28.50;19.75;;;26.80;56.10;;;;;;1840537;78;21101;-72
2021/12/21 10:19:46;;;;;;;30.30;21.00;;;26.80;56.10;;;;;;1814732;78;21674;-72
2021/12/21 10:22:17;;;;;;;34.15;22.77;;;26.80;56.00;;;;;;1841668;76;21187;-71
2021/12/21 10:24:50;;;;;;;29.67;23.02;;;26.80;56.00;;;;;;1846534;76;21125;-71
2021/12/21 10:27:24;;;;;;;30.20;21.00;;;26.80;56.30;;;;;;1843845;78;21242;-71
2021/12/21 10:29:58;;;;;;;36.95;21.02;;;26.80;56.40;;;;;;1836164;78;21132;-70
2021/12/21 10:32:31;;;;;;;29.40;20.45;;;26.70;56.30;;;;;;1843734;78;21785;-70
2021/12/21 10:35:05;;;;;;;29.63;21.23;;;26.70;56.50;;;;;;1815813;78;21144;-73
2021/12/21 10:37:39;;;;;;;29.60;21.52;;;26.70;56.70;;;;;;1839096;78;21144;-71
2021/12/21 10:40:12;;;;;;;36.33;22.65;;;26.70;57.10;;;;;;1819629;78;21660;-71
2021/12/21 10:42:45;;;;;;;35.15;20.05;;;26.60;57.10;;;;;;1826881;78;21168;-72
2021/12/21 10:45:18;;;;;;;30.23;21.00;;;26.50;57.20;;;;;;1821838;78;21577;-72
2021/12/21 10:47:49;;;;;;;30.00;20.95;;;26.50;57.50;;;;;;1813021;78;21138;-71
2021/12/21 10:50:22;;;;;;;31.20;20.80;;;26.50;57.70;;;;;;1826650;78;21157;-72
2021/12/21 10:53:01;;;;;;;33.15;22.90;;;26.40;57.90;;;;;;1813561;78;21145;-71
2021/12/21 10:55:34;;;;;;;32.88;21.90;;;26.40;58.00;;;;;;1814194;78;21648;-71
2021/12/21 10:58:08;;;;;;;32.60;22.50;;;26.30;58.30;;;;;;1805402;79;21161;-71
2021/12/21 11:00:41;;;;;;;33.60;22.30;;;26.30;58.30;;;;;;1805636;79;21783;-71
2021/12/21 11:03:16;;;;;;;43.02;25.52;;;26.20;58.40;;;;;;1820862;78;21135;-71
2021/12/21 11:05:47;;;;;;;49.90;29.40;;;26.20;58.60;;;;;;1826512;78;21134;-71
2021/12/21 11:08:22;;;;;;;54.20;36.05;;;26.20;58.90;;;;;;1816177;78;21165;-71
2021/12/21 11:10:58;;;;;;;61.90;40.78;;;26.20;59.00;;;;;;1798502;80;21660;-71
2021/12/21 11:13:25;;;;;;;68.28;45.00;;;26.10;59.10;;;;;;1807754;78;21161;-72
2021/12/21 11:15:59;;;;;;;63.15;42.00;;;26.10;59.50;;;;;;1826774;78;21198;-71
2021/12/21 11:18:29;;;;;;;64.50;38.35;;;26.10;59.60;;;;;;1804811;78;21550;-71
2021/12/21 11:21:00;;;;;;;58.75;39.10;;;26.00;59.80;;;;;;1805724;79;21625;-71
2021/12/21 11:23:31;;;;;;;60.05;37.15;;;26.00;60.00;;;;;;1820044;78;21138;-72
2021/12/21 11:26:07;;;;;;;53.17;36.60;;;26.00;60.50;;;;;;1809544;78;21638;-72
2021/12/21 11:28:37;;;;;;;55.55;37.28;;;25.90;61.40;;;;;;1808280;78;21586;-72
2021/12/21 11:31:10;;;;;;;56.35;36.83;;;25.90;60.50;;;;;;1816138;78;21129;-71
2021/12/21 11:33:44;;;;;;;50.50;33.98;;;25.90;60.90;;;;;;1821793;78;21157;-71
2021/12/21 11:38:48;;;;;;;49.55;33.35;;;25.80;61.30;;;;;;1832991;77;21125;-71
2021/12/21 11:41:19;;;;;;;52.93;33.75;;;25.80;61.60;;;;;;1846537;78;21145;-71
2021/12/21 11:43:54;;;;;;;48.15;33.80;;;25.70;61.50;;;;;;1846504;78;21172;-70
2021/12/21 11:46:27;;;;;;;53.20;33.65;;;25.70;62.00;;;;;;1845568;77;21632;-71
2021/12/21 11:49:00;;;;;;;48.35;33.83;;;25.70;62.10;;;;;;1846748;77;21082;-70
2021/12/21 11:51:32;;;;;;;48.50;33.10;;;25.60;62.20;;;;;;1844646;77;21612;-71
2021/12/21 11:54:04;;;;;;;50.95;33.88;;;25.60;62.20;;;;;;1870297;76;21175;-71
2021/12/21 11:56:35;;;;;;;53.68;34.65;;;25.60;62.00;;;;;;1844478;76;21117;-70
2021/12/21 11:59:06;;;;;;;48.08;33.40;;;25.50;62.00;;;;;;1845726;78;21241;-72
2021/12/21 12:01:40;;;;;;;53.70;33.60;;;25.50;61.80;;;;;;1842855;76;21149;-70
2021/12/21 12:04:12;;;;;;;46.33;32.17;;;25.50;62.00;;;;;;1842488;77;21094;-71
2021/12/21 12:06:45;;;;;;;56.83;34.53;;;25.50;62.30;;;;;;1853958;76;21059;-71
2021/12/21 12:09:18;;;;;;;55.17;34.25;;;25.50;62.50;;;;;;1862499;76;21130;-71
2021/12/21 12:11:50;;;;;;;58.40;36.88;;;25.50;62.90;;;;;;1862941;76;21666;-70
2021/12/21 12:14:23;;;;;;;51.80;34.18;;;25.50;62.80;;;;;;1857454;76;21541;-70
2021/12/21 12:16:56;;;;;;;55.60;34.40;;;25.50;63.20;;;;;;1831349;77;21097;-70
2021/12/21 12:19:30;;;;;;;54.77;33.18;;;25.40;63.50;;;;;;1850103;76;21111;-70
2021/12/21 12:22:03;;;;;;;53.63;33.18;;;25.50;63.50;;;;;;1850563;76;21125;-70
2021/12/21 12:24:37;;;;;;;46.95;30.35;;;25.50;63.00;;;;;;1856050;76;21679;-70
2021/12/21 12:27:10;;;;;;;51.80;31.95;;;25.50;63.30;;;;;;1857709;76;21814;-71
2021/12/21 12:29:44;;;;;;;50.30;32.80;;;25.50;63.40;;;;;;1849236;76;21105;-72
2021/12/21 12:32:16;;;;;;;49.85;33.25;;;25.60;63.50;;;;;;1843653;76;21193;-72
2021/12/21 12:34:49;;;;;;;50.73;31.73;;;25.60;62.90;;;;;;1858065;76;21182;-72
2021/12/21 12:37:23;;;;;;;52.13;32.98;;;25.60;62.60;;;;;;1847728;75;21125;-78
2021/12/21 12:39:56;;;;;;;51.65;33.73;;;25.60;62.80;;;;;;1847225;76;21180;-78
2021/12/21 12:42:32;;;;;;;51.88;32.75;;;25.60;63.10;;;;;;1850670;77;21251;-77
2021/12/21 12:45:04;;;;;;;51.10;31.90;;;25.60;63.10;;;;;;1851216;77;21097;-79
2021/12/21 12:47:38;;;;;;;49.67;31.87;;;25.60;63.40;;;;;;1851225;76;21181;-78
2021/12/21 12:50:11;;;;;;;52.17;32.50;;;25.60;63.80;;;;;;1829930;76;21166;-78
2021/12/21 12:52:44;;;;;;;53.75;32.98;;;25.60;63.70;;;;;;1852609;77;21226;-76
2021/12/21 12:55:15;;;;;;;49.00;33.05;;;25.60;64.10;;;;;;1854304;76;21147;-78
2021/12/21 12:57:49;;;;;;;51.80;32.35;;;25.60;65.40;;;;;;1852721;77;21132;-78
2021/12/21 13:00:22;;;;;;;52.65;32.78;;;25.50;65.20;;;;;;1851236;77;21537;-79
2021/12/21 13:02:55;;;;;;;52.03;32.80;;;25.50;65.00;;;;;;1849775;77;21741;-82
2021/12/21 13:05:32;;;;;;;54.73;33.25;;;25.50;64.90;;;;;;1853380;77;21548;-78
2021/12/21 13:08:03;;;;;;;55.08;34.23;;;25.50;64.90;;;;;;1852405;77;21218;-77
2021/12/21 13:10:36;;;;;;;45.28;31.37;;;25.50;65.00;;;;;;1849274;77;21171;-78
2021/12/21 13:13:08;;;;;;;53.60;31.60;;;25.50;64.80;;;;;;1850240;77;21104;-78
2021/12/21 13:15:42;;;;;;;47.08;31.30;;;25.50;64.80;;;;;;1851089;77;21409;-78
2021/12/21 13:18:17;;;;;;;49.08;33.13;;;25.40;64.90;;;;;;1850580;77;21189;-78
2021/12/21 13:20:48;;;;;;;49.33;32.05;;;25.40;65.10;;;;;;1853700;76;21083;-78
2021/12/21 13:23:22;;;;;;;46.73;31.25;;;25.40;65.50;;;;;;1853152;76;21089;-77
2021/12/21 13:25:55;;;;;;;53.20;32.67;;;25.40;65.30;;;;;;1850481;76;21133;-78
2021/12/21 13:28:26;;;;;;;68.75;35.20;;;25.30;65.80;;;;;;1851795;77;21131;-80
2021/12/21 13:30:59;;;;;;;46.37;31.17;;;25.30;65.90;;;;;;1850557;77;21186;-76
2021/12/21 13:33:30;;;;;;;54.20;33.98;;;25.30;65.70;;;;;;1852163;77;21187;-78
2021/12/21 13:36:03;;;;;;;84.20;59.45;;;25.30;66.60;;;;;;1852282;77;21194;-78
2021/12/21 13:38:37;;;;;;;206.10;183.90;;;25.30;67.00;;;;;;1852096;76;21895;-77
2021/12/21 13:41:11;;;;;;;72.95;48.87;;;25.20;67.10;;;;;;1836782;77;21088;-78
2021/12/21 13:43:45;;;;;;;54.42;32.75;;;25.20;67.00;;;;;;1801530;79;21602;-77
2021/12/21 13:46:15;;;;;;;337.50;232.45;;;25.10;67.10;;;;;;1767366;79;21208;-78
2021/12/21 13:48:48;;;;;;;62.10;36.53;;;25.10;67.20;;;;;;1833247;78;21199;-79
2021/12/21 13:51:21;;;;;;;56.75;35.17;;;25.10;67.00;;;;;;1801317;78;21124;-77
2021/12/21 13:53:58;;;;;;;71.42;40.88;;;25.10;67.00;;;;;;1834595;78;21215;-78
2021/12/21 13:56:33;;;;;;;50.78;32.63;;;25.20;67.10;;;;;;1807602;77;21193;-76
2021/12/21 13:59:09;;;;;;;230.47;204.65;;;25.20;67.80;;;;;;1799026;78;21525;-78